Saltar para o conteúdo principal

Sines

ID 1200541 · 37.9545, -8.8383 mapa

Última leitura · 2026-05-09 19:00 (Europe/Lisbon)

Temperatura
17.3 °C
Humidade
83 %
Pressão
1,008.2 hPa
Precipitação
0.0 mm
Radiação
1,163 W/m²
Velocidade do vento
22.3 km/h
Direcção do vento
SW · Sudoeste

Histórico de 24 horas

Hora (Europe/Lisbon) Temperatura Humidade Pressão Chuva Vento Direcção
2026-05-09 19:00 17.3 °C 83 % 1,008.2 0.0 mm 22.3 km/h SW
2026-05-09 18:00 17.7 °C 81 % 1,007.6 0.0 mm 24.5 km/h SW
2026-05-09 17:00 17.8 °C 79 % 1,007.2 0.0 mm 23.8 km/h SW
2026-05-09 16:00 17.9 °C 86 % 1,007.0 0.0 mm 27.0 km/h SW
2026-05-09 15:00 17.2 °C 90 % 1,006.7 0.1 mm 22.3 km/h SW
2026-05-09 14:00 17.4 °C 79 % 1,006.3 0.0 mm 19.8 km/h SW
2026-05-09 13:00 17.6 °C 77 % 1,006.0 0.0 mm 22.0 km/h SW
2026-05-09 12:00 16.9 °C 82 % 1,005.5 0.0 mm 25.2 km/h SW
2026-05-09 11:00 16.0 °C 90 % 1,004.6 0.0 mm 22.7 km/h SW
2026-05-09 10:00 15.1 °C 99 % 1,003.9 0.0 mm 18.7 km/h S
2026-05-09 09:00 13.4 °C 100 % 1,003.4 0.0 mm 15.5 km/h S
2026-05-09 08:00 12.4 °C 100 % 1,003.2 0.1 mm 12.2 km/h SE
2026-05-09 07:00 12.1 °C 100 % 1,003.3 0.4 mm 13.7 km/h S
2026-05-09 06:00 12.2 °C 100 % 1,003.5 2.9 mm 17.6 km/h S
2026-05-09 05:00 13.2 °C 100 % 1,003.7 1.6 mm 21.6 km/h SE
2026-05-09 04:00 12.9 °C 100 % 1,004.0 0.0 mm 18.0 km/h SE
2026-05-09 03:00 12.9 °C 100 % 1,004.8 0.3 mm 20.9 km/h SE
2026-05-09 02:00 12.9 °C 99 % 1,005.7 0.0 mm 15.1 km/h SE
2026-05-09 01:00 13.2 °C 95 % 1,006.3 0.0 mm 15.5 km/h SE
2026-05-09 00:00 12.9 °C 93 % 1,006.7 0.0 mm 16.9 km/h SE
2026-05-08 23:00 13.3 °C 97 % 1,006.3 0.0 mm 21.6 km/h S
2026-05-08 22:00 14.0 °C 99 % 1,005.7 0.2 mm 20.9 km/h SE
2026-05-08 21:00 15.2 °C 93 % 1,006.4 0.3 mm 24.8 km/h SE
2026-05-08 20:00 15.8 °C 84 % 1,006.3 0.0 mm 23.8 km/h SE